createdAt,value
2023-03-13T00:01:21.104Z,1.13
2023-03-13T00:03:48.790Z,0.88
2023-03-13T00:06:17.646Z,0.70
2023-03-13T00:08:44.560Z,0.70
2023-03-13T00:11:13.056Z,0.70
2023-03-13T00:13:39.970Z,0.95
2023-03-13T00:16:08.702Z,0.70
2023-03-13T00:18:35.771Z,1.00
2023-03-13T00:21:04.638Z,0.88
2023-03-13T00:23:33.375Z,1.05
2023-03-13T00:26:02.131Z,0.88
2023-03-13T00:28:32.316Z,1.00
2023-03-13T00:31:03.807Z,0.95
2023-03-13T00:33:32.417Z,0.75
2023-03-13T00:35:59.907Z,0.70
2023-03-13T00:38:28.235Z,0.98
2023-03-13T00:41:01.054Z,1.08
2023-03-13T00:43:28.020Z,0.60
2023-03-13T00:45:54.858Z,0.77
2023-03-13T00:48:22.159Z,0.70
2023-03-13T00:50:48.970Z,0.90
2023-03-13T00:53:16.236Z,0.60
2023-03-13T00:55:51.942Z,0.65
2023-03-13T00:58:20.269Z,0.57
2023-03-13T01:00:46.997Z,0.88
2023-03-13T01:03:14.289Z,0.60
2023-03-13T01:05:41.131Z,0.80
2023-03-13T01:08:07.952Z,0.70
2023-03-13T01:10:34.767Z,0.80
2023-03-13T01:13:01.602Z,0.52
2023-03-13T01:15:29.760Z,0.57
2023-03-13T01:17:56.570Z,0.90
2023-03-13T01:20:23.407Z,0.75
2023-03-13T01:22:50.242Z,0.70
2023-03-13T01:25:17.161Z,1.67
2023-03-13T01:27:43.916Z,0.80
2023-03-13T01:30:11.872Z,1.05
2023-03-13T01:32:40.029Z,0.70
2023-03-13T01:35:07.445Z,1.15
2023-03-13T01:37:34.299Z,0.93
2023-03-13T01:40:01.082Z,0.70
2023-03-13T01:42:27.892Z,0.77
2023-03-13T01:44:57.407Z,0.60
2023-03-13T01:47:24.269Z,0.98
2023-03-13T01:49:52.728Z,0.70
2023-03-13T01:52:23.144Z,0.52
2023-03-13T01:54:56.625Z,0.73
2023-03-13T01:57:26.864Z,0.70
2023-03-13T01:59:57.099Z,0.60
2023-03-13T02:02:24.605Z,0.80
2023-03-13T02:04:56.473Z,0.60
2023-03-13T02:07:28.007Z,0.40
2023-03-13T02:09:56.704Z,0.88
2023-03-13T02:12:29.054Z,0.70
2023-03-13T02:14:58.229Z,0.60
2023-03-13T02:17:25.687Z,0.50
2023-03-13T02:19:53.765Z,0.60
2023-03-13T02:22:26.148Z,0.50
2023-03-13T02:25:00.629Z,0.50
2023-03-13T02:27:28.905Z,0.50
2023-03-13T02:29:55.870Z,0.50
2023-03-13T02:32:23.415Z,0.50
2023-03-13T02:34:54.861Z,0.50
2023-03-13T02:37:23.577Z,0.50
2023-03-13T02:39:51.516Z,0.55
2023-03-13T02:42:21.212Z,0.38
2023-03-13T02:44:49.442Z,0.40
2023-03-13T02:47:18.727Z,0.70
2023-03-13T02:49:45.709Z,0.63
2023-03-13T02:52:16.252Z,0.45
2023-03-13T02:54:47.152Z,0.70
2023-03-13T02:57:13.970Z,0.60
2023-03-13T02:59:40.774Z,0.65
2023-03-13T03:02:08.925Z,0.50
2023-03-13T03:04:35.697Z,0.70
2023-03-13T03:07:02.440Z,0.50
2023-03-13T03:09:29.187Z,0.47
2023-03-13T03:11:56.287Z,0.40
2023-03-13T03:14:23.058Z,0.40
2023-03-13T03:16:49.985Z,0.50
2023-03-13T03:19:18.133Z,0.40
2023-03-13T03:21:45.879Z,0.43
2023-03-13T03:24:12.637Z,0.60
2023-03-13T03:26:39.511Z,0.30
2023-03-13T03:29:06.331Z,0.50
2023-03-13T03:31:33.158Z,0.50
2023-03-13T03:34:00.368Z,0.30
2023-03-13T03:36:29.569Z,0.40
2023-03-13T03:38:56.307Z,0.50
2023-03-13T03:41:23.060Z,0.40
2023-03-13T03:43:49.879Z,0.40
2023-03-13T03:46:16.890Z,0.40
2023-03-13T03:48:43.695Z,0.20
2023-03-13T03:51:10.697Z,0.30
2023-03-13T03:53:38.764Z,0.50
2023-03-13T03:56:06.282Z,0.60
2023-03-13T03:58:33.047Z,0.30
2023-03-13T04:01:00.098Z,0.40
2023-03-13T04:03:27.254Z,0.40
2023-03-13T04:05:54.249Z,0.40
2023-03-13T04:08:21.051Z,0.30
2023-03-13T04:10:49.179Z,0.40
2023-03-13T04:13:16.023Z,0.50
2023-03-13T04:15:43.360Z,0.50
2023-03-13T04:18:10.105Z,0.30
2023-03-13T04:20:37.097Z,0.30
2023-03-13T04:23:03.880Z,0.40
2023-03-13T04:25:30.621Z,0.30
2023-03-13T04:27:58.702Z,0.32
2023-03-13T04:30:25.467Z,0.30
2023-03-13T04:32:52.209Z,0.30
2023-03-13T04:35:19.011Z,0.30
2023-03-13T04:37:45.863Z,0.22
2023-03-13T04:40:13.125Z,0.38
2023-03-13T04:42:40.039Z,0.40
2023-03-13T04:45:11.069Z,0.40
2023-03-13T04:47:37.884Z,0.47
2023-03-13T04:50:05.541Z,0.40
2023-03-13T04:52:32.331Z,0.35
2023-03-13T04:54:59.055Z,0.35
2023-03-13T04:57:25.852Z,0.38
2023-03-13T04:59:52.596Z,0.30
2023-03-13T05:02:20.837Z,0.40
2023-03-13T05:04:47.682Z,0.60
2023-03-13T05:07:14.526Z,0.50
2023-03-13T05:09:41.280Z,0.50
2023-03-13T05:12:08.552Z,0.47
2023-03-13T05:14:35.365Z,0.65
2023-03-13T05:17:02.274Z,0.40
2023-03-13T05:19:30.368Z,0.73
2023-03-13T05:21:57.150Z,0.50
2023-03-13T05:24:23.867Z,0.40
2023-03-13T05:26:50.757Z,0.65
2023-03-13T05:29:17.501Z,0.55
2023-03-13T05:31:44.251Z,0.57
2023-03-13T05:34:11.041Z,0.60
2023-03-13T05:36:39.187Z,0.60
2023-03-13T05:39:05.966Z,0.88
2023-03-13T05:41:32.726Z,0.60
2023-03-13T05:43:59.460Z,0.55
2023-03-13T05:46:26.234Z,0.50
2023-03-13T05:48:53.095Z,0.57
2023-03-13T05:51:19.875Z,0.40
2023-03-13T05:53:48.029Z,0.60
2023-03-13T05:56:14.911Z,0.70
2023-03-13T05:58:41.681Z,0.80
2023-03-13T06:01:09.696Z,0.50
2023-03-13T06:03:36.787Z,0.60
2023-03-13T06:06:04.046Z,0.55
2023-03-13T06:08:30.867Z,0.55
2023-03-13T06:11:00.822Z,0.50
2023-03-13T06:13:27.992Z,0.50
2023-03-13T06:15:56.297Z,0.50
2023-03-13T06:18:24.272Z,0.60
2023-03-13T06:20:56.708Z,0.40
2023-03-13T06:23:23.528Z,0.70
2023-03-13T06:25:50.292Z,0.43
2023-03-13T06:28:18.413Z,0.70
2023-03-13T06:30:45.180Z,0.80
2023-03-13T06:33:12.157Z,0.60
2023-03-13T06:35:53.378Z,0.30
2023-03-13T06:38:24.456Z,0.40
2023-03-13T06:40:51.322Z,0.50
2023-03-13T06:43:20.079Z,0.60
2023-03-13T06:45:47.313Z,0.55
2023-03-13T06:48:14.196Z,0.88
2023-03-13T06:50:41.823Z,0.45
2023-03-13T06:53:14.033Z,1.00
2023-03-13T06:55:40.809Z,0.50
2023-03-13T06:58:08.777Z,0.40
2023-03-13T07:00:40.462Z,0.50
2023-03-13T07:03:07.291Z,0.52
2023-03-13T07:05:34.149Z,0.73
2023-03-13T07:08:00.903Z,0.80
2023-03-13T07:10:27.635Z,0.68
2023-03-13T07:12:54.433Z,0.60
2023-03-13T07:15:21.169Z,0.57
2023-03-13T07:17:49.335Z,0.50
2023-03-13T07:20:17.775Z,0.75
2023-03-13T07:22:44.708Z,0.80
2023-03-13T07:25:11.451Z,0.70
2023-03-13T07:27:38.154Z,0.52
2023-03-13T07:30:06.138Z,0.90
2023-03-13T07:32:32.945Z,0.73
2023-03-13T07:35:01.327Z,0.68
2023-03-13T07:37:28.076Z,0.73
2023-03-13T07:39:54.854Z,0.70
2023-03-13T07:42:21.624Z,0.95
2023-03-13T07:44:48.353Z,0.70
2023-03-13T07:47:15.138Z,0.50
2023-03-13T07:49:41.901Z,0.60
2023-03-13T07:52:10.463Z,0.63
2023-03-13T07:54:37.325Z,0.98
2023-03-13T07:57:04.724Z,0.80
2023-03-13T07:59:31.519Z,1.23
2023-03-13T08:01:58.314Z,0.50
2023-03-13T08:04:25.178Z,0.50
2023-03-13T08:06:51.985Z,0.77
2023-03-13T08:09:20.212Z,0.75
2023-03-13T08:11:46.968Z,0.60
2023-03-13T08:14:13.701Z,0.43
2023-03-13T08:16:40.564Z,0.70
2023-03-13T08:19:07.311Z,0.60
2023-03-13T08:21:35.572Z,0.80
2023-03-13T08:24:05.036Z,0.73
2023-03-13T08:26:34.841Z,0.70
2023-03-13T08:29:04.006Z,0.90
2023-03-13T08:31:33.924Z,0.47
2023-03-13T08:34:01.711Z,0.70
2023-03-13T08:36:31.575Z,0.63
2023-03-13T08:38:59.885Z,0.47
2023-03-13T08:41:28.588Z,0.50
2023-03-13T08:43:57.586Z,0.90
2023-03-13T08:46:25.120Z,0.52
2023-03-13T08:48:53.623Z,0.57
2023-03-13T08:51:23.266Z,0.65
2023-03-13T08:53:51.173Z,0.68
2023-03-13T08:56:19.980Z,0.50
2023-03-13T08:58:49.927Z,0.77
2023-03-13T09:01:18.387Z,0.60
2023-03-13T09:03:45.242Z,0.70
2023-03-13T09:06:12.400Z,0.47
2023-03-13T09:08:40.385Z,0.60
2023-03-13T09:11:08.948Z,0.60
2023-03-13T09:13:37.282Z,0.55
2023-03-13T09:16:06.390Z,0.50
2023-03-13T09:18:35.202Z,0.55
2023-03-13T09:21:02.664Z,0.50
2023-03-13T09:23:29.432Z,0.30
2023-03-13T09:25:57.343Z,0.60
2023-03-13T09:28:26.063Z,0.50
2023-03-13T09:30:54.276Z,0.50
2023-03-13T09:33:22.199Z,0.77
2023-03-13T09:35:50.398Z,0.40
2023-03-13T09:38:19.412Z,0.60
2023-03-13T09:40:59.721Z,0.40
2023-03-13T09:43:40.430Z,0.45
2023-03-13T09:46:13.883Z,0.38
2023-03-13T09:48:44.432Z,0.60
2023-03-13T09:51:18.399Z,0.40
2023-03-13T09:56:19.324Z,0.60
2023-03-13T09:58:54.774Z,0.45
2023-03-13T10:01:27.506Z,0.30
2023-03-13T10:04:02.504Z,0.50
2023-03-13T10:06:35.246Z,0.50
2023-03-13T10:09:03.257Z,0.45
2023-03-13T10:11:37.695Z,0.80
2023-03-13T10:14:11.530Z,0.30
2023-03-13T10:19:13.791Z,0.50
2023-03-13T10:21:44.459Z,0.50
2023-03-13T10:24:18.149Z,0.50
2023-03-13T10:26:45.117Z,0.40
2023-03-13T10:29:22.730Z,0.52
2023-03-13T10:31:56.633Z,0.70
2023-03-13T10:36:57.655Z,0.57
2023-03-13T10:41:57.845Z,0.60
2023-03-13T10:44:31.575Z,0.37
2023-03-13T10:47:00.781Z,0.50
2023-03-13T10:49:28.362Z,0.30
2023-03-13T10:51:58.748Z,0.60
2023-03-13T10:54:27.157Z,0.50
2023-03-13T10:57:10.492Z,0.30
2023-03-13T10:59:42.900Z,0.30
2023-03-13T11:02:22.201Z,0.20
2023-03-13T11:04:49.869Z,0.40
2023-03-13T11:07:25.888Z,0.20
2023-03-13T11:10:00.602Z,0.63
2023-03-13T11:12:28.085Z,0.47
2023-03-13T11:14:59.510Z,0.50
2023-03-13T11:17:34.025Z,0.45
2023-03-13T11:20:21.211Z,0.40
2023-03-13T11:22:55.951Z,0.20
2023-03-13T11:25:30.459Z,0.40
2023-03-13T11:28:15.448Z,0.30
2023-03-13T11:31:00.675Z,0.30
2023-03-13T11:33:39.238Z,0.43
2023-03-13T11:36:14.656Z,0.30
2023-03-13T11:38:45.697Z,0.38
2023-03-13T11:41:31.977Z,0.20
2023-03-13T11:44:22.188Z,0.20
2023-03-13T11:46:59.975Z,0.20
2023-03-13T11:49:40.993Z,0.20
2023-03-13T11:52:22.235Z,0.30
2023-03-13T11:55:12.832Z,0.50
2023-03-13T11:57:44.201Z,0.30
2023-03-13T12:00:20.909Z,0.30
2023-03-13T12:02:51.721Z,0.30
2023-03-13T12:05:20.451Z,0.30
2023-03-13T12:07:54.505Z,0.30
2023-03-13T12:10:27.499Z,0.40
2023-03-13T12:13:03.693Z,0.33
2023-03-13T12:15:34.478Z,0.40
2023-03-13T12:18:04.755Z,0.40
2023-03-13T12:20:38.390Z,0.40
2023-03-13T12:23:17.545Z,0.50
2023-03-13T12:25:50.451Z,0.30
2023-03-13T12:28:25.565Z,0.40
2023-03-13T12:31:01.418Z,0.47
2023-03-13T12:33:34.727Z,0.50
2023-03-13T12:36:07.981Z,0.52
2023-03-13T12:38:40.296Z,0.50
2023-03-13T12:41:18.554Z,0.60
2023-03-13T12:44:04.227Z,0.68
2023-03-13T12:46:39.001Z,0.47
2023-03-13T12:49:41.140Z,0.60
2023-03-13T12:52:29.455Z,0.63
2023-03-13T12:55:13.498Z,0.60
2023-03-13T12:58:09.348Z,0.60
2023-03-13T13:00:40.139Z,0.50
2023-03-13T13:03:19.321Z,0.60
2023-03-13T13:06:02.010Z,0.70
2023-03-13T13:08:33.409Z,0.50
2023-03-13T13:11:34.379Z,0.63
2023-03-13T13:14:05.662Z,0.50
2023-03-13T13:16:34.087Z,0.50
2023-03-13T13:19:45.292Z,0.65
2023-03-13T13:22:57.751Z,0.73
2023-03-13T13:25:32.054Z,0.68
2023-03-13T13:28:22.161Z,0.40
2023-03-13T13:30:51.563Z,0.40
2023-03-13T13:33:37.930Z,0.50
2023-03-13T13:36:28.441Z,0.47
2023-03-13T13:38:56.312Z,0.70
2023-03-13T13:41:35.037Z,0.50
2023-03-13T13:44:35.016Z,0.68
2023-03-13T13:47:03.406Z,0.63
2023-03-13T13:49:51.139Z,0.47
2023-03-13T13:52:36.759Z,0.70
2023-03-13T13:55:28.560Z,0.88
2023-03-13T13:58:00.007Z,0.60
2023-03-13T14:00:28.819Z,0.60
2023-03-13T14:02:57.666Z,0.45
2023-03-13T14:05:26.555Z,0.40
2023-03-13T14:08:02.909Z,0.45
2023-03-13T14:10:37.726Z,0.52
2023-03-13T14:13:12.486Z,0.40
2023-03-13T14:15:43.096Z,0.63
2023-03-13T14:18:16.142Z,0.40
2023-03-13T14:20:57.262Z,0.60
2023-03-13T14:23:36.686Z,0.60
2023-03-13T14:26:10.567Z,0.43
2023-03-13T14:28:39.912Z,0.52
2023-03-13T14:31:06.886Z,0.40
2023-03-13T14:33:35.611Z,0.60
2023-03-13T14:36:02.436Z,0.45
2023-03-13T14:38:29.840Z,0.40
2023-03-13T14:40:56.995Z,0.60
2023-03-13T14:43:30.793Z,0.30
2023-03-13T14:45:57.961Z,0.40
2023-03-13T14:48:29.670Z,0.60
2023-03-13T14:51:14.796Z,0.60
2023-03-13T14:53:54.121Z,0.60
2023-03-13T14:56:21.008Z,0.50
2023-03-13T14:58:47.954Z,0.52
2023-03-13T15:01:24.067Z,0.90
2023-03-13T15:03:51.098Z,0.45
2023-03-13T15:06:21.599Z,0.50
2023-03-13T15:08:50.101Z,0.40
2023-03-13T15:11:25.600Z,0.50
2023-03-13T15:13:53.038Z,0.60
2023-03-13T15:16:21.609Z,0.60
2023-03-13T15:18:49.624Z,0.85
2023-03-13T15:21:27.161Z,0.70
2023-03-13T15:23:56.141Z,0.63
2023-03-13T15:26:23.281Z,0.73
2023-03-13T15:28:50.159Z,0.80
2023-03-13T15:31:17.562Z,0.60
2023-03-13T15:33:44.535Z,0.50
2023-03-13T15:36:11.875Z,0.82
2023-03-13T15:38:40.160Z,0.70
2023-03-13T15:41:07.106Z,0.90
2023-03-13T15:43:33.887Z,0.70
2023-03-13T15:46:03.726Z,0.75
2023-03-13T15:48:31.866Z,1.00
2023-03-13T15:51:00.746Z,0.80
2023-03-13T15:53:30.228Z,1.00
2023-03-13T15:56:00.253Z,1.20
2023-03-13T15:58:28.715Z,0.88
2023-03-13T16:00:56.008Z,1.20
2023-03-13T16:03:25.575Z,0.70
2023-03-13T16:05:53.342Z,0.70
2023-03-13T16:08:34.598Z,0.68
2023-03-13T16:11:04.073Z,0.93
2023-03-13T16:13:31.114Z,0.80
2023-03-13T16:15:57.969Z,0.80
2023-03-13T16:18:25.609Z,0.50
2023-03-13T16:20:53.445Z,0.60
2023-03-13T16:23:20.369Z,0.90
2023-03-13T16:25:47.611Z,0.75
2023-03-13T16:28:16.440Z,0.75
2023-03-13T16:30:43.492Z,0.85
2023-03-13T16:33:11.286Z,0.63
2023-03-13T16:35:39.427Z,0.90
2023-03-13T16:38:06.279Z,0.75
2023-03-13T16:40:34.144Z,0.60
2023-03-13T16:43:01.285Z,1.23
2023-03-13T16:45:29.619Z,0.90
2023-03-13T16:47:56.419Z,1.05
2023-03-13T16:50:26.054Z,0.70
2023-03-13T16:52:54.402Z,0.98
2023-03-13T16:55:22.774Z,1.15
2023-03-13T16:57:49.526Z,1.00
2023-03-13T17:00:19.925Z,1.02
2023-03-13T17:02:48.874Z,1.10
2023-03-13T17:05:16.337Z,1.13
2023-03-13T17:07:43.881Z,1.10
2023-03-13T17:10:19.468Z,1.20
2023-03-13T17:12:46.370Z,1.08
2023-03-13T17:15:13.561Z,1.20
2023-03-13T17:17:41.113Z,1.38
2023-03-13T17:20:13.677Z,1.20
2023-03-13T17:22:40.514Z,1.30
2023-03-13T17:25:08.376Z,2.08
2023-03-13T17:27:35.371Z,1.30
2023-03-13T17:30:03.029Z,1.27
2023-03-13T17:32:30.094Z,1.15
2023-03-13T17:34:56.923Z,1.20
2023-03-13T17:37:25.157Z,1.30
2023-03-13T17:39:52.062Z,1.30
2023-03-13T17:42:18.900Z,1.10
2023-03-13T17:44:45.701Z,1.13
2023-03-13T17:47:17.093Z,1.40
2023-03-13T17:49:44.665Z,1.05
2023-03-13T17:52:16.387Z,1.30
2023-03-13T17:54:44.973Z,0.93
2023-03-13T17:57:15.459Z,0.90
2023-03-13T17:59:42.255Z,1.00
2023-03-13T18:02:11.528Z,1.20
2023-03-13T18:04:38.498Z,1.25
2023-03-13T18:07:13.569Z,1.80
2023-03-13T18:09:40.394Z,1.63
2023-03-13T18:12:10.960Z,1.67
2023-03-13T18:14:37.747Z,1.10
2023-03-13T18:17:14.441Z,1.60
2023-03-13T18:19:41.304Z,1.40
2023-03-13T18:22:15.461Z,0.90
2023-03-13T18:24:43.235Z,1.10
2023-03-13T18:27:16.132Z,1.00
2023-03-13T18:29:44.220Z,1.38
2023-03-13T18:32:14.607Z,3.67
2023-03-13T18:34:41.887Z,1.00
2023-03-13T18:37:20.687Z,1.48
2023-03-13T18:39:47.526Z,1.00
2023-03-13T18:42:15.636Z,1.00
2023-03-13T18:44:42.443Z,1.27
2023-03-13T18:47:13.160Z,1.50
2023-03-13T18:49:40.270Z,1.10
2023-03-13T18:52:07.374Z,1.10
2023-03-13T18:54:34.313Z,0.90
2023-03-13T18:57:01.242Z,1.00
2023-03-13T18:59:29.375Z,1.20
2023-03-13T19:01:56.115Z,0.95
2023-03-13T19:04:22.909Z,1.30
2023-03-13T19:06:50.288Z,1.52
2023-03-13T19:09:41.760Z,1.40
2023-03-13T19:12:05.588Z,1.50
2023-03-13T19:14:33.806Z,1.42
2023-03-13T19:17:00.601Z,1.23
2023-03-13T19:19:27.620Z,1.95
2023-03-13T19:21:54.498Z,1.42
2023-03-13T19:24:21.298Z,1.65
2023-03-13T19:26:50.310Z,1.50
2023-03-13T19:29:18.679Z,1.40
2023-03-13T19:31:47.563Z,1.45
2023-03-13T19:34:15.063Z,1.30
2023-03-13T19:36:44.100Z,1.17
2023-03-13T19:39:14.350Z,1.38
2023-03-13T19:41:41.414Z,1.70
2023-03-13T19:44:08.387Z,1.13
2023-03-13T19:46:35.715Z,1.50
2023-03-13T19:49:04.221Z,1.13
2023-03-13T19:51:31.445Z,1.17
2023-03-13T19:53:58.384Z,1.80
2023-03-13T19:56:27.443Z,1.30
2023-03-13T19:58:58.673Z,1.33
2023-03-13T20:01:25.655Z,1.45
2023-03-13T20:03:52.769Z,1.40
2023-03-13T20:06:22.699Z,1.42
2023-03-13T20:08:53.016Z,1.00
2023-03-13T20:11:19.864Z,1.20
2023-03-13T20:13:46.636Z,1.42
2023-03-13T20:16:13.602Z,1.10
2023-03-13T20:18:41.143Z,1.40
2023-03-13T20:21:07.948Z,1.30
2023-03-13T20:23:36.172Z,1.50
2023-03-13T20:26:03.837Z,1.58
2023-03-13T20:28:30.957Z,1.30
2023-03-13T20:30:57.769Z,1.60
2023-03-13T20:33:24.882Z,1.40
2023-03-13T20:35:55.984Z,1.67
2023-03-13T20:38:22.820Z,1.98
2023-03-13T20:40:53.617Z,1.52
2023-03-13T20:43:20.502Z,1.50
2023-03-13T20:45:47.351Z,1.63
2023-03-13T20:48:14.758Z,1.75
2023-03-13T20:50:42.407Z,1.80
2023-03-13T20:53:09.488Z,1.52
2023-03-13T20:55:37.515Z,1.60
2023-03-13T20:58:06.419Z,1.63
2023-03-13T21:00:33.614Z,1.67
2023-03-13T21:03:00.763Z,1.80
2023-03-13T21:05:27.727Z,1.83
2023-03-13T21:07:54.679Z,2.03
2023-03-13T21:10:21.542Z,2.40
2023-03-13T21:12:48.464Z,2.40
2023-03-13T21:15:16.816Z,2.10
2023-03-13T21:17:43.604Z,2.20
2023-03-13T21:20:11.438Z,1.85
2023-03-13T21:22:38.465Z,2.00
2023-03-13T21:25:06.229Z,2.30
2023-03-13T21:27:33.054Z,2.03
2023-03-13T21:29:59.833Z,1.98
2023-03-13T21:32:27.987Z,2.03
2023-03-13T21:34:54.775Z,2.30
2023-03-13T21:37:21.829Z,2.15
2023-03-13T21:39:51.037Z,2.00
2023-03-13T21:42:18.273Z,1.75
2023-03-13T21:44:45.173Z,1.90
2023-03-13T21:47:12.153Z,2.10
2023-03-13T21:49:40.534Z,1.95
2023-03-13T21:52:07.317Z,1.70
2023-03-13T21:54:34.168Z,1.52
2023-03-13T21:57:00.941Z,1.38
2023-03-13T21:59:27.815Z,1.90
2023-03-13T22:01:54.663Z,1.80
2023-03-13T22:04:21.643Z,1.60
2023-03-13T22:06:49.831Z,1.60
2023-03-13T22:09:16.648Z,1.45
2023-03-13T22:11:43.452Z,1.27
2023-03-13T22:14:10.437Z,0.90
2023-03-13T22:16:37.475Z,1.00
2023-03-13T22:19:04.357Z,1.40
2023-03-13T22:21:31.499Z,1.10
2023-03-13T22:23:59.737Z,0.80
2023-03-13T22:26:26.642Z,0.93
2023-03-13T22:28:53.508Z,1.00
2023-03-13T22:31:20.436Z,1.05
2023-03-13T22:33:47.425Z,1.30
2023-03-13T22:36:14.339Z,1.00
2023-03-13T22:38:41.254Z,1.13
2023-03-13T22:41:12.808Z,1.02
2023-03-13T22:43:39.993Z,0.95
2023-03-13T22:46:07.237Z,1.00
2023-03-13T22:48:35.574Z,0.98
2023-03-13T22:51:04.135Z,1.10
2023-03-13T22:53:31.936Z,1.00
2023-03-13T22:55:58.869Z,1.08
2023-03-13T22:58:27.471Z,0.70
2023-03-13T23:00:54.834Z,0.70
2023-03-13T23:03:22.261Z,0.90
2023-03-13T23:05:49.339Z,0.70
2023-03-13T23:08:16.882Z,0.50
2023-03-13T23:10:44.497Z,0.70
2023-03-13T23:13:11.731Z,0.30
2023-03-13T23:15:55.237Z,0.35
2023-03-13T23:20:49.755Z,0.35
2023-03-13T23:23:16.732Z,0.17
2023-03-13T23:25:43.660Z,0.20
2023-03-13T23:28:10.462Z,0.22
2023-03-13T23:30:38.653Z,0.30
2023-03-13T23:33:05.692Z,0.30
2023-03-13T23:35:32.557Z,0.25
2023-03-13T23:37:59.310Z,0.20
2023-03-13T23:40:26.083Z,0.20
2023-03-13T23:42:52.844Z,0.20
2023-03-13T23:45:20.048Z,0.20
2023-03-13T23:47:48.108Z,0.20
2023-03-13T23:50:15.943Z,0.30
2023-03-13T23:52:42.830Z,0.20
2023-03-13T23:55:10.564Z,0.25
2023-03-13T23:57:37.666Z,0.20
